Time;durP1;ratioP1;P1;durP2;ratioP2;P2;SDS_P1;SDS_P2;PMS_P1;PMS_P2;Temp;Humidity;BMP_temperature;BMP_pressure;BME280_temperature;BME280_humidity;BME280_pressure;Samples;Min_cycle;Max_cycle;Signal;HPM_P1;HPM_P2
2023/05/04 00:00:48;;;;;;;13.80;7.95;;;;;;;11.38;100.00;100206.09;5034887;28;20048;-68
2023/05/04 00:03:13;;;;;;;10.90;6.72;;;;;;;11.33;100.00;100200.44;5036305;28;20037;-68
2023/05/04 00:05:39;;;;;;;11.02;7.22;;;;;;;11.21;100.00;100197.19;5034645;28;20316;-68
2023/05/04 00:08:04;;;;;;;12.43;7.05;;;;;;;11.26;100.00;100194.09;5035413;28;20045;-67
2023/05/04 00:10:30;;;;;;;10.85;7.10;;;;;;;11.17;100.00;100206.44;5034955;28;20196;-67
2023/05/04 00:12:55;;;;;;;10.90;6.93;;;;;;;11.23;100.00;100197.88;5034533;28;20304;-68
2023/05/04 00:15:21;;;;;;;14.32;7.13;;;;;;;11.28;100.00;100186.81;5035644;28;20379;-65
2023/05/04 00:17:46;;;;;;;13.10;7.28;;;;;;;11.27;100.00;100193.09;5034338;28;20049;-64
2023/05/04 00:20:12;;;;;;;9.88;5.90;;;;;;;11.25;100.00;100180.00;5033087;28;20092;-64
2023/05/04 00:22:38;;;;;;;13.40;7.22;;;;;;;11.23;100.00;100174.03;5034041;28;20041;-68
2023/05/04 00:25:05;;;;;;;11.82;6.13;;;;;;;11.22;100.00;100171.53;5033624;28;20042;-68
2023/05/04 00:27:30;;;;;;;13.02;7.43;;;;;;;11.24;100.00;100173.03;5034331;28;20053;-68
2023/05/04 00:29:56;;;;;;;10.23;6.00;;;;;;;11.13;100.00;100171.47;5035186;28;20050;-68
2023/05/04 00:32:21;;;;;;;12.13;5.88;;;;;;;11.17;100.00;100169.34;5033948;28;20071;-65
2023/05/04 00:34:48;;;;;;;11.57;6.43;;;;;;;11.08;100.00;100159.69;5034797;28;20328;-65
2023/05/04 00:37:13;;;;;;;18.20;7.15;;;;;;;11.12;100.00;100171.63;5036233;28;20354;-65
2023/05/04 00:39:38;;;;;;;8.43;5.10;;;;;;;11.08;100.00;100167.63;5033239;28;20033;-62
2023/05/04 00:42:04;;;;;;;11.85;6.93;;;;;;;11.06;100.00;100162.47;5035216;28;20047;-62
2023/05/04 00:44:29;;;;;;;10.82;6.43;;;;;;;11.06;100.00;100166.94;5034499;28;20386;-63
2023/05/04 00:46:56;;;;;;;12.48;6.57;;;;;;;11.13;100.00;100173.28;5034558;28;20037;-62
2023/05/04 00:49:22;;;;;;;14.10;7.10;;;;;;;11.20;100.00;100161.91;5036460;28;20056;-62
2023/05/04 00:51:49;;;;;;;11.85;6.88;;;;;;;11.22;100.00;100174.19;5034222;28;20029;-62
2023/05/04 00:54:19;;;;;;;11.55;5.45;;;;;;;11.12;100.00;100191.00;5031547;28;20112;-62
2023/05/04 00:56:45;;;;;;;17.35;7.40;;;;;;;11.24;100.00;100181.00;5033242;28;20146;-62
2023/05/04 00:59:12;;;;;;;10.65;6.00;;;;;;;11.17;100.00;100167.53;5033644;28;20371;-64
2023/05/04 01:01:38;;;;;;;10.90;6.85;;;;;;;11.31;100.00;100173.25;5032502;28;20063;-64
2023/05/04 01:04:04;;;;;;;13.48;6.80;;;;;;;11.26;100.00;100179.00;5032924;28;20037;-63
2023/05/04 01:06:53;;;;;;;10.38;6.22;;;;;;;11.19;100.00;100162.91;5033428;28;21210;-62
2023/05/04 01:09:42;;;;;;;14.63;6.50;;;;;;;11.14;100.00;100164.34;5031914;28;20274;-62
2023/05/04 01:12:37;;;;;;;12.27;7.28;;;;;;;11.19;100.00;100173.50;5031882;28;20040;-62
2023/05/04 01:15:03;;;;;;;;;;;;;;;11.12;100.00;100175.09;5029331;28;20355;-62
2023/05/04 01:17:28;;;;;;;11.65;7.63;;;;;;;11.24;100.00;100173.03;5032587;28;19928;-62
2023/05/04 01:19:54;;;;;;;10.30;7.05;;;;;;;11.20;100.00;100180.47;5033536;28;20237;-63
2023/05/04 01:22:20;;;;;;;11.57;6.50;;;;;;;11.25;100.00;100179.16;5032771;28;20025;-62
2023/05/04 01:24:46;;;;;;;14.75;6.72;;;;;;;11.13;100.00;100170.66;5032778;28;20038;-65
2023/05/04 01:27:20;;;;;;;12.13;6.97;;;;;;;11.20;100.00;100171.69;5033813;28;20110;-62
2023/05/04 01:30:02;;;;;;;12.77;7.00;;;;;;;11.23;100.00;100165.25;5031413;28;20038;-65
2023/05/04 01:32:29;;;;;;;16.35;7.68;;;;;;;11.18;100.00;100158.59;5032093;28;20079;-62
2023/05/04 01:34:55;;;;;;;11.73;6.57;;;;;;;11.12;100.00;100151.25;5033174;28;20037;-68
2023/05/04 01:37:20;;;;;;;14.25;8.52;;;;;;;11.25;100.00;100150.00;5033299;28;20029;-68
2023/05/04 01:39:46;;;;;;;14.38;8.10;;;;;;;11.29;100.00;100146.06;5034117;28;20046;-65
2023/05/04 01:42:11;;;;;;;14.45;8.95;;;;;;;11.28;100.00;100166.44;5034119;28;20508;-63
2023/05/04 01:44:37;;;;;;;13.82;7.70;;;;;;;11.22;100.00;100158.28;5033412;28;20044;-63
2023/05/04 01:47:02;;;;;;;15.77;8.88;;;;;;;11.32;100.00;100157.19;5032386;28;20075;-63
2023/05/04 01:49:28;;;;;;;15.20;8.52;;;;;;;11.27;100.00;100150.69;5033309;28;20038;-65
2023/05/04 01:51:53;;;;;;;11.15;6.72;;;;;;;11.20;100.00;100153.13;5032180;28;20332;-62
2023/05/04 01:54:19;;;;;;;16.10;8.73;;;;;;;11.34;100.00;100131.34;5033023;28;20059;-65
2023/05/04 01:56:45;;;;;;;13.07;7.57;;;;;;;11.34;100.00;100138.47;5033737;28;20052;-63
2023/05/04 01:59:10;;;;;;;14.95;7.80;;;;;;;11.30;100.00;100137.13;5032968;28;20041;-65
2023/05/04 02:01:36;;;;;;;11.20;7.10;;;;;;;11.37;100.00;100148.75;5033332;28;20043;-62
2023/05/04 02:04:01;;;;;;;16.38;7.75;;;;;;;11.28;100.00;100139.09;5034436;28;20335;-62
2023/05/04 02:06:27;;;;;;;14.75;8.35;;;;;;;11.28;100.00;100147.88;5034670;28;20224;-63
2023/05/04 02:08:52;;;;;;;13.43;6.93;;;;;;;11.32;100.00;100151.88;5033591;28;20025;-63
2023/05/04 02:11:17;;;;;;;13.68;7.75;;;;;;;11.32;100.00;100159.00;5032368;28;20270;-62
2023/05/04 02:13:43;;;;;;;14.43;7.80;;;;;;;11.28;100.00;100158.47;5033197;28;20327;-62
2023/05/04 02:16:08;;;;;;;10.45;6.35;;;;;;;11.28;100.00;100163.78;5033271;28;20351;-65
2023/05/04 02:18:34;;;;;;;13.30;7.18;;;;;;;11.28;100.00;100171.72;5032341;28;20068;-64
2023/05/04 02:21:00;;;;;;;17.17;8.10;;;;;;;11.28;100.00;100166.44;5032459;28;20041;-64
2023/05/04 02:23:25;;;;;;;12.75;6.70;;;;;;;11.27;100.00;100156.00;5033486;28;20450;-62
2023/05/04 02:25:51;;;;;;;11.65;6.93;;;;;;;11.33;100.00;100158.00;5033109;28;20354;-65
2023/05/04 02:28:17;;;;;;;12.27;6.80;;;;;;;11.30;100.00;100158.31;5032845;28;20324;-65
2023/05/04 02:30:42;;;;;;;12.82;6.78;;;;;;;11.23;100.00;100165.25;5033182;28;20041;-65
2023/05/04 02:33:08;;;;;;;16.23;8.13;;;;;;;11.26;100.00;100173.72;5032513;28;20077;-65
2023/05/04 02:35:33;;;;;;;14.65;7.47;;;;;;;11.32;100.00;100164.31;5033587;28;20038;-62
2023/05/04 02:37:59;;;;;;;12.95;7.88;;;;;;;11.30;100.00;100166.28;5032418;28;20196;-62
2023/05/04 02:40:25;;;;;;;14.02;8.07;;;;;;;11.23;100.00;100160.78;5033871;28;20038;-65
2023/05/04 02:42:50;;;;;;;13.70;7.32;;;;;;;11.33;100.00;100176.56;5032984;28;20030;-66
2023/05/04 02:45:16;;;;;;;14.65;7.13;;;;;;;11.29;100.00;100176.06;5032954;28;20045;-63
2023/05/04 02:47:41;;;;;;;13.38;8.15;;;;;;;11.28;100.00;100171.72;5033583;28;20048;-62
2023/05/04 02:50:07;;;;;;;10.73;7.13;;;;;;;11.30;100.00;100167.09;5031117;28;20037;-62
2023/05/04 02:52:32;;;;;;;11.68;7.18;;;;;;;11.28;100.00;100184.16;5030989;28;20584;-64
2023/05/04 02:54:58;;;;;;;16.20;7.70;;;;;;;11.21;100.00;100173.34;5031847;28;20046;-63
2023/05/04 02:57:24;;;;;;;11.15;6.05;;;;;;;11.19;100.00;100177.97;5031633;28;20071;-66
2023/05/04 02:59:50;;;;;;;14.32;7.43;;;;;;;11.15;100.00;100187.22;5030933;28;20061;-65
2023/05/04 03:02:15;;;;;;;11.35;7.05;;;;;;;11.13;100.00;100184.72;5032265;28;20354;-66
2023/05/04 03:04:40;;;;;;;14.13;6.97;;;;;;;11.10;100.00;100181.56;5035400;28;20251;-66
2023/05/04 03:07:07;;;;;;;14.43;7.35;;;;;;;11.05;100.00;100179.38;5034509;28;20307;-65
2023/05/04 03:09:33;;;;;;;17.38;7.80;;;;;;;11.05;100.00;100183.84;5035363;28;20030;-65
2023/05/04 03:11:58;;;;;;;11.48;7.65;;;;;;;11.15;100.00;100185.41;5035426;28;20047;-66
2023/05/04 03:14:24;;;;;;;15.75;8.10;;;;;;;11.19;100.00;100193.88;5034951;28;20029;-66
2023/05/04 03:16:49;;;;;;;12.68;7.30;;;;;;;11.14;100.00;100191.69;5035406;28;20358;-66
2023/05/04 03:19:17;;;;;;;12.45;8.15;;;;;;;11.16;100.00;100188.88;5036301;28;20240;-66
2023/05/04 03:21:46;;;;;;;12.48;7.20;;;;;;;11.12;100.00;100185.72;5035257;28;20040;-66
2023/05/04 03:24:11;;;;;;;12.07;6.82;;;;;;;11.04;100.00;100177.69;5035623;28;20037;-66
2023/05/04 03:26:37;;;;;;;11.30;7.47;;;;;;;11.11;100.00;100180.56;5034401;28;20386;-66
2023/05/04 03:29:03;;;;;;;13.38;6.93;;;;;;;11.14;100.00;100191.69;5035086;28;20341;-66
2023/05/04 03:31:28;;;;;;;12.65;7.18;;;;;;;11.10;100.00;100192.97;5035596;28;20025;-66
2023/05/04 03:33:54;;;;;;;14.32;7.03;;;;;;;11.10;100.00;100197.47;5034988;28;20037;-66
2023/05/04 03:36:19;;;;;;;15.70;8.18;;;;;;;11.21;100.00;100199.84;5034858;28;20044;-66
2023/05/04 03:38:45;;;;;;;11.82;7.60;;;;;;;11.16;100.00;100200.31;5036329;28;20064;-66
2023/05/04 03:41:11;;;;;;;11.82;8.02;;;;;;;11.21;100.00;100191.91;5034900;28;20041;-66
2023/05/04 03:43:37;;;;;;;12.57;7.63;;;;;;;11.14;100.00;100204.94;5035388;28;20108;-66
2023/05/04 03:46:03;;;;;;;15.13;8.70;;;;;;;11.14;100.00;100199.63;5035547;28;20124;-66
2023/05/04 03:48:28;;;;;;;16.38;8.77;;;;;;;11.22;100.00;100188.25;5034416;28;20053;-66
2023/05/04 03:50:54;;;;;;;18.90;9.00;;;;;;;11.25;100.00;100187.13;5035198;28;20060;-66
2023/05/04 03:53:19;;;;;;;11.82;7.65;;;;;;;11.27;100.00;100195.75;5035436;28;20025;-66
2023/05/04 03:55:45;;;;;;;15.98;9.00;;;;;;;11.37;100.00;100192.00;5034917;28;20044;-66
2023/05/04 03:58:10;;;;;;;16.85;9.57;;;;;;;11.41;100.00;100189.88;5035082;28;20045;-66
2023/05/04 04:00:36;;;;;;;16.75;9.10;;;;;;;11.45;100.00;100188.59;5035114;28;20046;-66
2023/05/04 04:03:02;;;;;;;17.08;9.38;;;;;;;11.36;100.00;100179.75;5036177;28;20041;-66
2023/05/04 04:05:27;;;;;;;17.75;9.45;;;;;;;11.32;100.00;100193.47;5034334;28;20044;-67
2023/05/04 04:07:52;;;;;;;17.05;8.95;;;;;;;11.38;100.00;100183.06;5033659;28;20048;-66
2023/05/04 04:10:18;;;;;;;16.45;9.10;;;;;;;11.48;100.00;100194.44;5034621;28;20358;-67
2023/05/04 04:12:43;;;;;;;15.63;8.90;;;;;;;11.45;100.00;100196.56;5035135;28;20037;-66
2023/05/04 04:15:09;;;;;;;14.93;8.90;;;;;;;11.38;100.00;100200.78;5034688;28;20212;-66
2023/05/04 04:17:34;;;;;;;16.88;9.90;;;;;;;11.50;100.00;100205.72;5033637;28;20053;-66
2023/05/04 04:20:00;;;;;;;15.65;9.60;;;;;;;11.47;100.00;100211.31;5034202;28;20416;-66
2023/05/04 04:22:26;;;;;;;15.63;9.27;;;;;;;11.45;100.00;100210.66;5033672;28;20034;-66
2023/05/04 04:24:51;;;;;;;17.20;8.85;;;;;;;11.43;100.00;100202.00;5033090;28;20033;-66
2023/05/04 04:27:17;;;;;;;16.08;8.38;;;;;;;11.43;100.00;100203.81;5032497;28;20082;-66
2023/05/04 04:29:43;;;;;;;15.45;8.48;;;;;;;11.50;100.00;100212.84;5034083;28;20079;-66
2023/05/04 04:32:09;;;;;;;16.05;8.63;;;;;;;11.69;100.00;100211.78;5032679;28;20531;-69
2023/05/04 04:34:35;;;;;;;15.43;8.57;;;;;;;11.74;100.00;100217.44;5034271;28;20305;-69
2023/05/04 04:37:00;;;;;;;11.00;7.40;;;;;;;11.75;100.00;100217.28;5032942;28;20041;-66
2023/05/04 04:39:26;;;;;;;12.82;7.80;;;;;;;11.73;100.00;100213.13;5033652;28;20477;-67
2023/05/04 04:41:51;;;;;;;12.80;7.13;;;;;;;11.89;100.00;100212.41;5033045;28;20033;-69
2023/05/04 04:44:17;;;;;;;8.85;6.00;;;;;;;11.89;100.00;100225.69;5035292;28;20251;-66
2023/05/04 04:46:44;;;;;;;9.90;5.82;;;;;;;11.94;100.00;100229.50;5032174;28;20040;-69
2023/05/04 04:49:11;;;;;;;8.63;6.35;;;;;;;12.06;100.00;100230.06;5031888;28;20342;-69
2023/05/04 04:51:36;;;;;;;8.43;5.78;;;;;;;12.18;100.00;100223.47;5031221;28;20112;-69
2023/05/04 04:54:01;;;;;;;9.95;5.70;;;;;;;12.21;100.00;100225.81;5033802;28;20033;-69
2023/05/04 04:56:27;;;;;;;10.35;6.30;;;;;;;12.00;100.00;100226.22;5033173;28;20040;-69
2023/05/04 04:58:52;;;;;;;12.70;6.03;;;;;;;12.02;100.00;100236.69;5033868;28;20235;-69
2023/05/04 05:01:18;;;;;;;10.25;6.60;;;;;;;12.18;100.00;100231.44;5031687;28;20075;-69
2023/05/04 05:03:44;;;;;;;9.43;6.15;;;;;;;12.20;100.00;100228.63;5032540;28;20030;-69
2023/05/04 05:06:10;;;;;;;7.97;5.65;;;;;;;12.33;100.00;100231.66;5031973;28;20030;-69
2023/05/04 05:08:36;;;;;;;11.30;6.57;;;;;;;12.35;100.00;100229.66;5033096;28;20311;-69
2023/05/04 05:11:02;;;;;;;7.47;5.57;;;;;;;12.49;100.00;100233.56;5032069;28;20100;-69
2023/05/04 05:13:29;;;;;;;8.15;5.90;;;;;;;12.55;100.00;100239.03;5032935;28;20390;-67
2023/05/04 05:15:55;;;;;;;9.23;5.85;;;;;;;12.42;100.00;100244.78;5031861;28;20033;-66
2023/05/04 05:18:20;;;;;;;9.32;5.82;;;;;;;12.44;100.00;100242.81;5031989;28;20374;-66
2023/05/04 05:20:45;;;;;;;8.93;6.05;;;;;;;12.57;100.00;100236.22;5029652;28;20337;-67
2023/05/04 05:23:11;;;;;;;10.13;5.70;;;;;;;12.69;100.00;100238.41;5031141;28;20354;-67
2023/05/04 05:25:37;;;;;;;14.90;6.65;;;;;;;12.79;100.00;100240.91;5029728;28;20030;-67
2023/05/04 05:28:03;;;;;;;8.88;5.65;;;;;;;12.84;100.00;100243.06;5034377;28;20367;-66
2023/05/04 05:30:28;;;;;;;8.77;5.78;;;;;;;12.75;100.00;100235.09;5034040;28;20044;-66
2023/05/04 05:32:54;;;;;;;9.75;6.07;;;;;;;12.89;100.00;100232.78;5033923;28;20045;-66
2023/05/04 05:35:19;;;;;;;10.15;6.00;;;;;;;12.90;100.00;100243.25;5034482;28;20046;-66
2023/05/04 05:37:47;;;;;;;9.13;6.07;;;;;;;12.76;100.00;100247.38;5035169;28;20312;-67
2023/05/04 05:40:13;;;;;;;10.10;6.28;;;;;;;12.91;100.00;100249.41;5035027;28;20033;-66
2023/05/04 05:42:38;;;;;;;8.80;5.72;;;;;;;12.83;100.00;100255.53;5049168;28;20361;-66
2023/05/04 05:45:04;;;;;;;17.48;7.07;;;;;;;12.88;100.00;100249.72;5035920;28;20228;-66
2023/05/04 05:47:30;;;;;;;9.00;5.63;;;;;;;12.84;100.00;100249.22;5034616;28;20033;-66
2023/05/04 05:49:55;;;;;;;11.02;6.63;;;;;;;12.88;100.00;100257.69;5035915;28;20106;-66
2023/05/04 05:52:21;;;;;;;11.65;7.45;;;;;;;12.73;100.00;100252.19;5035810;28;20036;-66
2023/05/04 05:54:46;;;;;;;12.35;7.30;;;;;;;12.61;100.00;100251.69;5036346;28;20046;-66
2023/05/04 05:57:11;;;;;;;11.80;7.68;;;;;;;12.73;100.00;100260.16;5035995;28;20135;-66
2023/05/04 05:59:37;;;;;;;12.95;8.18;;;;;;;12.65;100.00;100270.78;5035479;28;20049;-66
2023/05/04 06:02:02;;;;;;;13.15;8.50;;;;;;;12.56;100.00;100271.75;5034904;28;20037;-66
2023/05/04 06:04:28;;;;;;;14.35;7.22;;;;;;;12.45;100.00;100263.06;5035377;28;20275;-66
2023/05/04 06:06:54;;;;;;;13.77;7.97;;;;;;;12.40;100.00;100256.56;5035766;28;20109;-63
2023/05/04 06:09:20;;;;;;;16.23;8.45;;;;;;;12.33;100.00;100261.69;5035921;28;20049;-66
2023/05/04 06:11:45;;;;;;;16.30;9.00;;;;;;;12.47;100.00;100265.56;5035478;28;20037;-66
2023/05/04 06:14:11;;;;;;;14.45;8.15;;;;;;;12.25;100.00;100263.50;5035893;28;20341;-63
2023/05/04 06:16:37;;;;;;;16.35;8.40;;;;;;;12.17;100.00;100261.63;5035241;28;20033;-66
2023/05/04 06:19:02;;;;;;;17.40;9.95;;;;;;;12.25;100.00;100263.50;5035996;28;20240;-66
2023/05/04 06:21:28;;;;;;;17.92;9.75;;;;;;;12.23;100.00;100260.16;5036133;28;20091;-66
2023/05/04 06:23:53;;;;;;;16.15;9.43;;;;;;;12.31;100.00;100265.50;5036167;28;20029;-66
2023/05/04 06:26:19;;;;;;;16.00;9.27;;;;;;;12.38;100.00;100269.19;5036377;28;20267;-66
2023/05/04 06:28:44;;;;;;;16.92;9.27;;;;;;;12.35;100.00;100269.50;5036235;28;20037;-63
2023/05/04 06:31:09;;;;;;;16.95;9.07;;;;;;;12.38;100.00;100271.84;5035439;28;20297;-66
2023/05/04 06:33:35;;;;;;;15.25;9.25;;;;;;;12.31;100.00;100269.00;5035495;28;20060;-66
2023/05/04 06:36:01;;;;;;;15.55;9.07;;;;;;;12.45;100.00;100267.53;5035731;28;20033;-64
2023/05/04 06:38:26;;;;;;;13.98;9.10;;;;;;;12.37;100.00;100278.97;5037575;28;20049;-66
2023/05/04 06:40:52;;;;;;;15.90;9.52;;;;;;;12.42;100.00;100267.88;5039486;28;20029;-66
2023/05/04 06:43:17;;;;;;;15.30;9.07;;;;;;;12.29;100.00;100264.84;5039444;28;20030;-64
2023/05/04 06:45:43;;;;;;;15.80;8.98;;;;;;;12.30;100.00;100269.16;5039361;28;20034;-66
2023/05/04 06:48:08;;;;;;;14.65;8.63;;;;;;;12.21;100.00;100262.97;5039666;28;20124;-63
2023/05/04 06:50:35;;;;;;;16.13;9.38;;;;;;;12.33;100.00;100264.34;5039425;28;20037;-66
2023/05/04 06:53:08;;;;;;;15.52;8.73;;;;;;;12.36;100.00;100263.19;5040104;28;20037;-65
2023/05/04 06:55:34;;;;;;;;;;;;;;;12.38;100.00;100263.88;5040437;28;20033;-64
2023/05/04 06:58:00;;;;;;;15.38;9.30;;;;;;;12.46;100.00;100269.19;5039162;28;19920;-63
2023/05/04 07:00:25;;;;;;;18.17;9.68;;;;;;;12.51;100.00;100274.06;5038689;28;20033;-66
2023/05/04 07:02:54;;;;;;;14.85;9.57;;;;;;;12.52;100.00;100262.44;5038931;28;20040;-66
2023/05/04 07:05:23;;;;;;;13.88;9.05;;;;;;;12.58;100.00;100264.44;5038790;28;20033;-67
2023/05/04 07:07:49;;;;;;;16.63;9.77;;;;;;;12.59;100.00;100268.78;5038839;28;20033;-66
2023/05/04 07:10:15;;;;;;;17.95;10.18;;;;;;;12.67;100.00;100269.63;5037273;28;20052;-66
2023/05/04 07:12:41;;;;;;;15.07;9.25;;;;;;;12.53;100.00;100278.22;5037539;28;20079;-64
2023/05/04 07:15:08;;;;;;;16.73;9.93;;;;;;;12.61;100.00;100272.94;5039397;28;20087;-63
2023/05/04 07:17:34;;;;;;;15.07;10.88;;;;;;;12.56;100.00;100269.94;5030503;28;20048;-64
2023/05/04 07:20:01;;;;;;;19.55;11.00;;;;;;;12.64;100.00;100269.94;5031942;28;20331;-63
2023/05/04 07:22:27;;;;;;;16.00;10.00;;;;;;;12.53;100.00;100270.25;5031426;28;20313;-64
2023/05/04 07:24:52;;;;;;;16.80;9.82;;;;;;;12.61;100.00;100274.75;5030815;28;20038;-63
2023/05/04 07:27:18;;;;;;;18.17;10.73;;;;;;;12.67;100.00;100274.09;5029641;28;20033;-64
2023/05/04 07:29:43;;;;;;;17.00;10.50;;;;;;;12.71;100.00;100283.41;5029584;28;20461;-63
2023/05/04 07:32:09;;;;;;;13.88;8.95;;;;;;;12.62;100.00;100274.59;5031132;28;20033;-63
2023/05/04 07:34:34;;;;;;;16.80;9.60;;;;;;;12.62;100.00;100273.75;5028575;28;20060;-63
2023/05/04 07:37:03;;;;;;;20.10;10.90;;;;;;;12.73;100.00;100273.47;5028955;28;20037;-65
2023/05/04 07:39:28;;;;;;;16.63;10.98;;;;;;;12.84;100.00;100272.31;5030056;28;20038;-63
2023/05/04 07:41:54;;;;;;;20.90;12.30;;;;;;;12.81;100.00;100270.81;5031265;28;20354;-64
2023/05/04 07:44:19;;;;;;;23.70;12.55;;;;;;;12.87;100.00;100262.19;5032194;28;20045;-63
2023/05/04 07:46:45;;;;;;;22.60;13.80;;;;;;;12.81;100.00;100265.50;5030655;28;20041;-64
2023/05/04 07:49:10;;;;;;;19.35;12.07;;;;;;;12.89;100.00;100264.69;5031506;28;20045;-63
2023/05/04 07:51:37;;;;;;;21.80;11.82;;;;;;;12.84;100.00;100267.81;5032426;28;20025;-63
2023/05/04 07:54:02;;;;;;;17.50;10.98;;;;;;;12.74;100.00;100270.63;5031137;28;20333;-63
2023/05/04 07:56:27;;;;;;;21.45;12.43;;;;;;;12.97;100.00;100270.00;5033711;28;20036;-63
2023/05/04 07:58:53;;;;;;;17.63;11.38;;;;;;;12.99;100.00;100271.50;5037387;28;20033;-63
2023/05/04 08:01:18;;;;;;;22.92;13.73;;;;;;;12.97;100.00;100275.31;5037901;28;20033;-64
2023/05/04 08:03:44;;;;;;;22.73;12.38;;;;;;;13.06;100.00;100269.00;5037252;28;20026;-63
2023/05/04 08:06:09;;;;;;;22.02;12.68;;;;;;;13.05;100.00;100283.31;5037717;28;20047;-64
2023/05/04 08:08:35;;;;;;;18.33;10.18;;;;;;;12.98;100.00;100283.13;5038032;28;20079;-63
2023/05/04 08:11:00;;;;;;;20.00;11.80;;;;;;;13.10;100.00;100286.31;5037908;28;20095;-64
2023/05/04 08:13:26;;;;;;;21.02;11.75;;;;;;;13.22;100.00;100289.50;5038894;28;20041;-64
2023/05/04 08:15:51;;;;;;;21.98;12.07;;;;;;;13.21;100.00;100285.16;5037346;28;20040;-64
2023/05/04 08:18:17;;;;;;;21.40;11.95;;;;;;;13.09;100.00;100292.63;5037565;28;20217;-64
2023/05/04 08:20:42;;;;;;;25.17;12.55;;;;;;;12.90;100.00;100282.28;5037967;28;20358;-64
2023/05/04 08:23:08;;;;;;;18.80;11.02;;;;;;;12.95;100.00;100288.78;5037305;28;20245;-65
2023/05/04 08:25:33;;;;;;;21.73;12.00;;;;;;;12.94;100.00;100284.44;5037954;28;20037;-64
2023/05/04 08:27:59;;;;;;;21.95;12.38;;;;;;;13.07;100.00;100286.63;5038039;28;20076;-65
2023/05/04 08:30:24;;;;;;;23.10;12.85;;;;;;;13.13;100.00;100285.13;5037203;28;20037;-64
2023/05/04 08:32:51;;;;;;;26.10;12.60;;;;;;;12.98;100.00;100283.13;5037295;28;20107;-64
2023/05/04 08:35:17;;;;;;;21.70;12.73;;;;;;;13.16;100.00;100287.47;5036963;28;20395;-66
2023/05/04 08:37:42;;;;;;;21.38;11.40;;;;;;;13.16;100.00;100288.28;5037157;28;20041;-64
2023/05/04 08:40:08;;;;;;;22.35;12.65;;;;;;;13.11;100.00;100285.31;5036584;28;20224;-65
2023/05/04 08:42:33;;;;;;;26.05;14.25;;;;;;;13.07;100.00;100279.47;5037448;28;20040;-67
2023/05/04 08:44:59;;;;;;;30.38;17.30;;;;;;;13.00;100.00;100283.78;5037207;28;20037;-67
2023/05/04 08:47:26;;;;;;;31.52;16.77;;;;;;;13.10;100.00;100283.63;5037230;28;20072;-64
2023/05/04 08:49:55;;;;;;;31.77;18.00;;;;;;;13.19;100.00;100282.69;5037402;28;20087;-65
2023/05/04 08:52:25;;;;;;;26.35;13.60;;;;;;;13.12;100.00;100281.66;5037256;28;20353;-67
2023/05/04 08:54:53;;;;;;;30.35;15.63;;;;;;;13.26;100.00;100281.03;5037221;28;20049;-65
2023/05/04 08:57:23;;;;;;;33.08;16.55;;;;;;;13.21;100.00;100278.03;5037940;28;20215;-67
2023/05/04 08:59:54;;;;;;;28.80;13.93;;;;;;;13.28;100.00;100284.34;5036901;28;20132;-64
2023/05/04 09:02:21;;;;;;;23.88;13.88;;;;;;;13.32;100.00;100276.88;5036051;28;20381;-67
2023/05/04 09:04:51;;;;;;;28.33;15.20;;;;;;;13.47;100.00;100274.34;5037246;28;20100;-68
2023/05/04 09:07:18;;;;;;;29.25;16.13;;;;;;;13.57;100.00;100272.38;5036865;28;20101;-68
2023/05/04 09:09:44;;;;;;;26.58;14.95;;;;;;;13.67;100.00;100275.69;5037234;28;20033;-67
2023/05/04 09:12:09;;;;;;;29.42;14.82;;;;;;;13.73;100.00;100283.00;5036677;28;20040;-67
2023/05/04 09:14:35;;;;;;;27.52;15.52;;;;;;;13.63;100.00;100275.19;5034769;28;20048;-67
2023/05/04 09:17:02;;;;;;;26.23;14.70;;;;;;;13.72;100.00;100268.03;5031955;28;20064;-67
2023/05/04 09:19:32;;;;;;;28.55;15.02;;;;;;;13.84;100.00;100276.50;5031470;28;20094;-67
2023/05/04 09:22:01;;;;;;;30.05;15.57;;;;;;;13.90;100.00;100281.13;5030371;28;20041;-67
2023/05/04 09:24:28;;;;;;;29.02;14.90;;;;;;;14.01;100.00;100280.78;5030265;28;20041;-67
2023/05/04 09:26:53;;;;;;;29.88;15.98;;;;;;;14.01;100.00;100276.28;5031444;28;20352;-68
2023/05/04 09:29:20;;;;;;;27.60;16.08;;;;;;;14.19;100.00;100284.03;5032490;28;20041;-68
2023/05/04 09:31:49;;;;;;;29.65;14.82;;;;;;;14.03;100.00;100276.09;5031336;28;20056;-68
2023/05/04 09:34:15;;;;;;;30.13;16.30;;;;;;;14.01;100.00;100278.09;5031619;28;20335;-67
2023/05/04 09:36:43;;;;;;;27.23;14.05;;;;;;;13.92;100.00;100269.31;5030484;28;20036;-68
2023/05/04 09:39:13;;;;;;;28.13;15.80;;;;;;;13.95;100.00;100265.47;5030191;28;20045;-68
2023/05/04 09:41:40;;;;;;;29.27;16.85;;;;;;;14.05;100.00;100272.25;5030806;28;20048;-68
2023/05/04 09:44:21;;;;;;;26.65;16.95;;;;;;;14.31;100.00;100257.84;5031032;28;20109;-68
2023/05/04 09:46:57;;;;;;;27.30;16.25;;;;;;;14.50;100.00;100268.09;5030317;28;20045;-68
2023/05/04 09:49:36;;;;;;;30.92;16.65;;;;;;;14.59;100.00;100268.94;5031600;28;20240;-68
2023/05/04 09:52:04;;;;;;;27.45;15.30;;;;;;;14.43;100.00;100260.97;5030448;28;20041;-68
2023/05/04 09:54:33;;;;;;;36.85;17.48;;;;;;;14.48;100.00;100255.97;5037267;28;20315;-67
2023/05/04 09:57:08;;;;;;;25.73;14.52;;;;;;;14.46;100.00;100263.31;5036560;28;20056;-67
2023/05/04 09:59:34;;;;;;;25.75;14.50;;;;;;;14.55;100.00;100257.75;5035740;28;20033;-68
2023/05/04 10:01:59;;;;;;;31.67;15.85;;;;;;;14.70;100.00;100265.84;5035932;28;20156;-68
2023/05/04 10:04:25;;;;;;;31.23;16.23;;;;;;;14.80;100.00;100254.97;5036191;28;20045;-68
2023/05/04 10:06:53;;;;;;;28.02;16.20;;;;;;;14.66;100.00;100259.22;5036236;28;20029;-68
2023/05/04 10:09:20;;;;;;;25.13;14.35;;;;;;;14.66;100.00;100254.72;5036104;28;20033;-68
2023/05/04 10:11:45;;;;;;;30.98;15.68;;;;;;;14.78;100.00;100256.97;5035248;28;20045;-68
2023/05/04 10:14:12;;;;;;;33.05;16.90;;;;;;;14.88;100.00;100247.75;5038621;28;20075;-68
2023/05/04 10:16:54;;;;;;;31.85;16.92;;;;;;;14.88;100.00;100250.41;5040003;28;20067;-68
2023/05/04 10:19:41;;;;;;;29.23;16.15;;;;;;;14.88;100.00;100253.06;5040872;28;20104;-68
2023/05/04 10:22:48;;;;;;;31.55;17.02;;;;;;;15.02;100.00;100254.97;5038852;28;20354;-68
2023/05/04 10:25:42;;;;;;;33.67;17.98;;;;;;;15.08;100.00;100252.59;5038959;28;20065;-68
2023/05/04 10:28:33;;;;;;;35.35;19.13;;;;;;;15.14;100.00;100251.88;5040591;28;20045;-68
2023/05/04 10:30:59;;;;;;;37.65;19.75;;;;;;;15.18;100.00;100248.69;5039211;28;20269;-67
2023/05/04 10:33:25;;;;;;;33.95;18.15;;;;;;;15.16;100.00;100241.88;5039853;28;20037;-67
2023/05/04 10:35:54;;;;;;;36.95;19.05;;;;;;;15.16;100.00;100245.34;5039794;28;20025;-68
2023/05/04 10:38:36;;;;;;;34.80;18.60;;;;;;;15.17;100.00;100239.03;5039696;28;20041;-68
2023/05/04 10:41:15;;;;;;;40.22;19.75;;;;;;;15.17;100.00;100239.03;5039065;28;20059;-68
2023/05/04 10:43:41;;;;;;;33.60;19.35;;;;;;;15.17;100.00;100241.69;5039954;28;20041;-67
2023/05/04 10:46:20;;;;;;;36.95;19.85;;;;;;;15.19;100.00;100231.66;5039412;28;20033;-68
2023/05/04 10:48:46;;;;;;;42.15;21.40;;;;;;;15.25;100.00;100235.44;5039784;28;20025;-68
2023/05/04 10:51:25;;;;;;;38.30;20.08;;;;;;;15.29;100.00;100237.56;5039566;28;20327;-68
2023/05/04 10:53:51;;;;;;;38.97;20.70;;;;;;;15.30;100.00;100233.91;5038029;28;20037;-67
2023/05/04 10:56:24;;;;;;;36.85;19.35;;;;;;;15.31;100.00;100234.72;5033852;28;20033;-67
2023/05/04 10:58:50;;;;;;;35.97;19.63;;;;;;;15.30;100.00;100236.56;5031935;28;20041;-68
2023/05/04 11:01:16;;;;;;;35.10;19.63;;;;;;;15.22;100.00;100231.31;5032103;28;20037;-68
2023/05/04 11:03:42;;;;;;;38.47;21.13;;;;;;;15.28;100.00;100229.75;5034656;28;20037;-67
2023/05/04 11:06:24;;;;;;;39.78;20.00;;;;;;;15.33;100.00;100230.88;5032710;28;20353;-67